createdAt,value
2019-02-03T00:00:27.138Z,81.10
2019-02-03T00:01:27.087Z,87.00
2019-02-03T00:02:27.082Z,88.40
2019-02-03T00:03:27.061Z,92.70
2019-02-03T00:04:27.066Z,86.10
2019-02-03T00:05:27.044Z,84.70
2019-02-03T00:06:27.039Z,80.90
2019-02-03T00:07:27.016Z,84.50
2019-02-03T00:08:27.014Z,81.20
2019-02-03T00:09:26.992Z,82.30
2019-02-03T00:10:26.987Z,78.60
2019-02-03T00:11:26.970Z,74.90
2019-02-03T00:12:26.969Z,82.60
2019-02-03T00:13:26.950Z,79.50
2019-02-03T00:14:26.950Z,77.30
2019-02-03T00:15:26.923Z,75.80
2019-02-03T00:16:26.918Z,73.70
2019-02-03T00:17:26.919Z,77.90
2019-02-03T00:18:26.890Z,71.80
2019-02-03T00:19:26.896Z,77.30
2019-02-03T00:20:26.868Z,74.50
2019-02-03T00:21:26.865Z,83.50
2019-02-03T00:22:26.859Z,82.30
2019-02-03T00:23:26.854Z,77.20
2019-02-03T00:24:26.832Z,78.90
2019-02-03T00:25:26.820Z,76.50
2019-02-03T00:26:26.802Z,72.40
2019-02-03T00:27:34.052Z,78.20
2019-02-03T00:28:26.781Z,79.80
2019-02-03T00:29:26.761Z,85.80
2019-02-03T00:30:26.772Z,80.80
2019-02-03T00:31:26.747Z,73.60
2019-02-03T00:32:26.736Z,81.60
2019-02-03T00:33:26.735Z,74.50
2019-02-03T00:34:26.708Z,75.40
2019-02-03T00:35:26.714Z,72.30
2019-02-03T00:36:26.689Z,83.00
2019-02-03T00:37:26.669Z,79.60
2019-02-03T00:38:26.718Z,72.90
2019-02-03T00:39:26.680Z,76.60
2019-02-03T00:40:26.664Z,75.70
2019-02-03T00:41:26.758Z,76.30
2019-02-03T00:42:26.632Z,82.80
2019-02-03T00:43:27.500Z,81.90
2019-02-03T00:44:26.600Z,90.80
2019-02-03T00:45:26.667Z,93.80
2019-02-03T00:46:26.577Z,85.50
2019-02-03T00:47:26.566Z,93.20
2019-02-03T00:48:26.552Z,104.10
2019-02-03T00:49:26.540Z,98.90
2019-02-03T00:50:26.839Z,97.40
2019-02-03T00:51:26.576Z,103.40
2019-02-03T00:52:26.508Z,94.60
2019-02-03T00:53:26.500Z,104.30
2019-02-03T00:54:26.510Z,105.00
2019-02-03T00:55:26.474Z,102.90
2019-02-03T00:56:26.463Z,100.10
2019-02-03T00:57:26.457Z,100.30
2019-02-03T00:58:26.442Z,109.60
2019-02-03T00:59:26.433Z,107.70
2019-02-03T01:00:26.418Z,101.50
2019-02-03T01:01:26.409Z,103.70
2019-02-03T01:02:26.392Z,107.70
2019-02-03T01:03:26.506Z,118.40
2019-02-03T01:04:26.366Z,99.90
2019-02-03T01:05:26.363Z,110.40
2019-02-03T01:06:26.343Z,114.80
2019-02-03T01:07:27.805Z,106.50
2019-02-03T01:08:26.320Z,116.20
2019-02-03T01:09:26.316Z,107.30
2019-02-03T01:10:26.576Z,106.00
2019-02-03T01:11:26.290Z,110.30
2019-02-03T01:12:26.394Z,109.10
2019-02-03T01:13:26.423Z,115.80
2019-02-03T01:14:26.274Z,115.30
2019-02-03T01:15:26.257Z,115.40
2019-02-03T01:16:26.363Z,110.80
2019-02-03T01:17:26.225Z,104.90
2019-02-03T01:18:26.223Z,111.60
2019-02-03T01:19:26.200Z,104.20
2019-02-03T01:20:26.183Z,110.60
2019-02-03T01:21:26.185Z,110.40
2019-02-03T01:22:26.237Z,119.50
2019-02-03T01:23:26.151Z,107.30
2019-02-03T01:24:26.150Z,108.60
2019-02-03T01:25:26.142Z,114.40
2019-02-03T01:26:26.121Z,98.10
2019-02-03T01:27:26.111Z,105.20
2019-02-03T01:28:26.100Z,108.90
2019-02-03T01:29:26.094Z,114.80
2019-02-03T01:30:26.082Z,112.80
2019-02-03T01:31:26.066Z,105.10
2019-02-03T01:32:26.291Z,111.80
2019-02-03T01:33:27.037Z,111.30
2019-02-03T01:34:26.041Z,114.60
2019-02-03T01:35:26.020Z,103.90
2019-02-03T01:36:26.010Z,100.90
2019-02-03T01:37:25.997Z,105.10
2019-02-03T01:38:25.989Z,96.60
2019-02-03T01:39:25.977Z,111.00
2019-02-03T01:40:25.969Z,114.10
2019-02-03T01:41:26.032Z,111.70
2019-02-03T01:42:26.520Z,100.70
2019-02-03T01:43:26.247Z,96.90
2019-02-03T01:44:25.992Z,104.80
2019-02-03T01:45:25.905Z,106.30
2019-02-03T01:46:25.893Z,102.40
2019-02-03T01:47:25.879Z,106.00
2019-02-03T01:48:25.869Z,103.00
2019-02-03T01:49:25.859Z,103.80
2019-02-03T01:50:25.850Z,109.60
2019-02-03T01:51:25.844Z,108.10
2019-02-03T01:52:25.826Z,98.70
2019-02-03T01:53:25.815Z,97.40
2019-02-03T01:54:26.341Z,101.30
2019-02-03T01:55:25.796Z,112.70
2019-02-03T01:56:25.788Z,105.40
2019-02-03T01:57:25.773Z,94.70
2019-02-03T01:58:25.756Z,105.20
2019-02-03T01:59:25.747Z,91.10
2019-02-03T02:00:25.742Z,98.90
2019-02-03T02:01:25.735Z,101.30
2019-02-03T02:02:25.713Z,101.00
2019-02-03T02:03:25.704Z,93.30
2019-02-03T02:04:25.694Z,97.30
2019-02-03T02:05:25.678Z,92.60
2019-02-03T02:06:25.667Z,86.30
2019-02-03T02:07:25.657Z,91.60
2019-02-03T02:08:25.647Z,95.40
2019-02-03T02:09:25.639Z,88.80
2019-02-03T02:10:25.626Z,90.10
2019-02-03T02:11:25.614Z,91.30
2019-02-03T02:12:25.599Z,91.20
2019-02-03T02:13:25.588Z,96.80
2019-02-03T02:14:25.580Z,100.30
2019-02-03T02:15:25.572Z,98.10
2019-02-03T02:16:25.556Z,89.40
2019-02-03T02:17:25.542Z,91.50
2019-02-03T02:18:25.531Z,92.70
2019-02-03T02:19:25.521Z,97.50
2019-02-03T02:20:25.511Z,104.80
2019-02-03T02:21:25.503Z,94.60
2019-02-03T02:22:25.485Z,95.40
2019-02-03T02:23:25.481Z,97.40
2019-02-03T02:24:25.464Z,97.60
2019-02-03T02:25:25.452Z,100.60
2019-02-03T02:26:25.447Z,101.80
2019-02-03T02:27:25.427Z,87.80
2019-02-03T02:28:25.433Z,89.30
2019-02-03T02:29:25.433Z,103.90
2019-02-03T02:30:25.415Z,102.10
2019-02-03T02:31:25.385Z,104.70
2019-02-03T02:32:25.378Z,97.70
2019-02-03T02:33:25.361Z,94.80
2019-02-03T02:34:25.359Z,104.90
2019-02-03T02:35:25.343Z,108.70
2019-02-03T02:36:25.330Z,95.60
2019-02-03T02:37:25.307Z,93.00
2019-02-03T02:38:25.303Z,99.90
2019-02-03T02:39:25.293Z,95.50
2019-02-03T02:40:25.282Z,104.80
2019-02-03T02:41:25.299Z,102.60
2019-02-03T02:42:25.263Z,101.00
2019-02-03T02:43:25.247Z,103.20
2019-02-03T02:44:25.240Z,105.20
2019-02-03T02:45:25.226Z,107.00
2019-02-03T02:46:25.216Z,111.60
2019-02-03T02:47:25.212Z,98.50
2019-02-03T02:48:25.189Z,115.60
2019-02-03T02:49:25.192Z,108.70
2019-02-03T02:50:25.164Z,117.20
2019-02-03T02:51:25.157Z,101.80
2019-02-03T02:52:25.146Z,96.50
2019-02-03T02:53:25.140Z,96.80
2019-02-03T02:54:25.127Z,110.20
2019-02-03T02:55:25.112Z,102.80
2019-02-03T02:56:25.095Z,105.10
2019-02-03T02:57:25.086Z,106.70
2019-02-03T02:58:25.075Z,94.50
2019-02-03T02:59:25.064Z,98.50
2019-02-03T03:00:25.063Z,102.90
2019-02-03T03:01:25.044Z,89.80
2019-02-03T03:02:25.032Z,97.20
2019-02-03T03:03:25.021Z,95.40
2019-02-03T03:04:25.006Z,97.60
2019-02-03T03:05:24.998Z,99.80
2019-02-03T03:06:24.991Z,92.20
2019-02-03T03:07:24.977Z,94.40
2019-02-03T03:08:24.964Z,90.70
2019-02-03T03:09:24.954Z,95.30
2019-02-03T03:10:24.939Z,91.30
2019-02-03T03:11:24.931Z,93.60
2019-02-03T03:12:24.918Z,89.60
2019-02-03T03:13:24.912Z,95.10
2019-02-03T03:14:24.897Z,93.10
2019-02-03T03:15:24.897Z,90.20
2019-02-03T03:16:24.871Z,93.80
2019-02-03T03:17:24.864Z,100.70
2019-02-03T03:18:24.851Z,106.80
2019-02-03T03:19:24.839Z,101.40
2019-02-03T03:20:24.825Z,104.00
2019-02-03T03:21:24.813Z,99.30
2019-02-03T03:22:24.802Z,97.60
2019-02-03T03:23:24.796Z,90.40
2019-02-03T03:24:24.788Z,99.50
2019-02-03T03:25:24.775Z,101.90
2019-02-03T03:26:24.759Z,97.80
2019-02-03T03:27:24.748Z,104.00
2019-02-03T03:28:24.741Z,102.60
2019-02-03T03:29:24.719Z,115.70
2019-02-03T03:30:24.746Z,100.20
2019-02-03T03:31:24.762Z,97.30
2019-02-03T03:32:24.691Z,105.00
2019-02-03T03:33:24.685Z,99.50
2019-02-03T03:34:24.671Z,102.30
2019-02-03T03:35:24.658Z,108.10
2019-02-03T03:36:24.649Z,108.00
2019-02-03T03:37:24.631Z,109.70
2019-02-03T03:38:32.252Z,113.60
2019-02-03T03:39:24.609Z,107.70
2019-02-03T03:40:24.680Z,104.20
2019-02-03T03:41:24.580Z,109.30
2019-02-03T03:42:24.565Z,104.50
2019-02-03T03:43:24.560Z,102.50
2019-02-03T03:44:24.570Z,102.80
2019-02-03T03:45:24.538Z,96.50
2019-02-03T03:46:24.526Z,98.80
2019-02-03T03:47:24.519Z,108.90
2019-02-03T03:48:24.505Z,100.70
2019-02-03T03:49:24.491Z,104.50
2019-02-03T03:50:24.482Z,98.40
2019-02-03T03:51:24.472Z,96.60
2019-02-03T03:52:24.460Z,98.50
2019-02-03T03:53:24.450Z,99.70
2019-02-03T03:54:24.433Z,99.20
2019-02-03T03:55:24.422Z,102.10
2019-02-03T03:56:24.414Z,94.90
2019-02-03T03:57:24.403Z,97.80
2019-02-03T03:58:24.389Z,98.40
2019-02-03T03:59:24.382Z,99.20
2019-02-03T04:00:24.374Z,93.90
2019-02-03T04:01:24.357Z,110.70
2019-02-03T04:02:24.380Z,96.20
2019-02-03T04:03:24.335Z,98.40
2019-02-03T04:04:24.319Z,101.10
2019-02-03T04:05:24.311Z,109.40
2019-02-03T04:06:24.346Z,108.10
2019-02-03T04:07:24.293Z,108.80
2019-02-03T04:08:24.274Z,103.70
2019-02-03T04:09:24.268Z,99.70
2019-02-03T04:10:24.269Z,109.80
2019-02-03T04:11:24.231Z,107.00
2019-02-03T04:12:24.228Z,112.30
2019-02-03T04:13:24.224Z,119.40
2019-02-03T04:14:24.207Z,113.90
2019-02-03T04:15:24.192Z,105.30
2019-02-03T04:16:24.182Z,113.30
2019-02-03T04:17:24.169Z,107.60
2019-02-03T04:18:24.159Z,111.50
2019-02-03T04:19:24.148Z,118.90
2019-02-03T04:20:24.129Z,117.40
2019-02-03T04:21:24.139Z,113.40
2019-02-03T04:22:24.113Z,119.90
2019-02-03T04:23:24.107Z,120.60
2019-02-03T04:24:24.093Z,116.40
2019-02-03T04:25:24.083Z,117.20
2019-02-03T04:26:24.071Z,124.70
2019-02-03T04:27:24.052Z,122.40
2019-02-03T04:28:24.041Z,122.50
2019-02-03T04:29:24.031Z,115.20
2019-02-03T04:30:24.020Z,127.00
2019-02-03T04:31:24.011Z,120.50
2019-02-03T04:32:23.999Z,130.40
2019-02-03T04:33:23.983Z,114.90
2019-02-03T04:34:23.971Z,125.00
2019-02-03T04:35:24.017Z,121.60
2019-02-03T04:36:23.956Z,129.50
2019-02-03T04:37:23.955Z,136.50
2019-02-03T04:38:23.927Z,134.40
2019-02-03T04:39:23.921Z,129.90
2019-02-03T04:40:23.914Z,127.30
2019-02-03T04:41:23.897Z,123.40
2019-02-03T04:42:23.893Z,122.20
2019-02-03T04:43:23.882Z,127.40
2019-02-03T04:44:23.853Z,121.20
2019-02-03T04:45:23.848Z,128.50
2019-02-03T04:46:23.827Z,120.30
2019-02-03T04:47:23.830Z,124.10
2019-02-03T04:48:23.813Z,117.10
2019-02-03T04:49:23.808Z,120.90
2019-02-03T04:50:23.790Z,125.40
2019-02-03T04:51:23.785Z,128.80
2019-02-03T04:52:23.765Z,120.60
2019-02-03T04:53:23.756Z,119.60
2019-02-03T04:54:23.742Z,126.90
2019-02-03T04:55:23.746Z,115.30
2019-02-03T04:56:23.724Z,124.30
2019-02-03T04:57:23.707Z,131.10
2019-02-03T04:58:23.695Z,111.20
2019-02-03T04:59:23.686Z,127.20
2019-02-03T05:00:23.697Z,122.50
2019-02-03T05:01:23.667Z,118.40
2019-02-03T05:02:23.655Z,110.30
2019-02-03T05:03:23.646Z,121.60
2019-02-03T05:04:23.631Z,121.00
2019-02-03T05:05:23.626Z,124.40
2019-02-03T05:06:23.608Z,114.70
2019-02-03T05:07:23.598Z,113.20
2019-02-03T05:08:23.589Z,122.40
2019-02-03T05:09:23.577Z,106.90
2019-02-03T05:10:23.569Z,124.80
2019-02-03T05:11:23.549Z,128.00
2019-02-03T05:12:23.542Z,122.90
2019-02-03T05:13:23.531Z,122.00
2019-02-03T05:14:23.523Z,119.20
2019-02-03T05:15:23.508Z,120.30
2019-02-03T05:16:23.495Z,119.20
2019-02-03T05:17:23.480Z,120.00
2019-02-03T05:18:23.472Z,120.80
2019-02-03T05:19:23.462Z,119.00
2019-02-03T05:20:23.459Z,118.40
2019-02-03T05:21:23.445Z,126.10
2019-02-03T05:22:23.436Z,118.40
2019-02-03T05:23:23.429Z,122.60
2019-02-03T05:24:23.396Z,112.80
2019-02-03T05:25:23.446Z,121.70
2019-02-03T05:26:23.390Z,124.70
2019-02-03T05:27:23.372Z,122.30
2019-02-03T05:28:23.356Z,123.60
2019-02-03T05:29:23.348Z,124.60
2019-02-03T05:30:23.343Z,111.50
2019-02-03T05:31:23.323Z,121.00
2019-02-03T05:32:23.316Z,111.70
2019-02-03T05:33:23.305Z,122.10
2019-02-03T05:34:23.293Z,115.20
2019-02-03T05:35:23.290Z,122.80
2019-02-03T05:36:23.266Z,119.40
2019-02-03T05:37:23.257Z,119.00
2019-02-03T05:38:23.243Z,123.00
2019-02-03T05:39:25.442Z,119.90
2019-02-03T05:40:23.237Z,120.90
2019-02-03T05:41:23.212Z,121.40
2019-02-03T05:42:23.199Z,116.80
2019-02-03T05:43:23.187Z,115.60
2019-02-03T05:44:23.181Z,117.20
2019-02-03T05:45:23.170Z,114.00
2019-02-03T05:46:23.157Z,115.40
2019-02-03T05:47:23.145Z,114.40
2019-02-03T05:48:23.133Z,116.50
2019-02-03T05:49:23.123Z,121.70
2019-02-03T05:50:23.110Z,124.90
2019-02-03T05:51:23.102Z,122.30
2019-02-03T05:52:23.097Z,111.70
2019-02-03T05:53:23.082Z,118.30
2019-02-03T05:54:23.072Z,114.60
2019-02-03T05:55:23.055Z,122.70
2019-02-03T05:56:23.040Z,126.00
2019-02-03T05:57:23.028Z,123.40
2019-02-03T05:58:23.022Z,122.60
2019-02-03T05:59:23.016Z,123.20
2019-02-03T06:00:22.989Z,116.40
2019-02-03T06:01:22.986Z,114.90
2019-02-03T06:02:22.967Z,118.30
2019-02-03T06:03:22.966Z,112.00
2019-02-03T06:04:22.964Z,123.60
2019-02-03T06:05:22.943Z,121.40
2019-02-03T06:06:22.929Z,124.00
2019-02-03T06:07:22.919Z,117.80
2019-02-03T06:08:22.911Z,113.00
2019-02-03T06:09:22.897Z,112.60
2019-02-03T06:10:22.886Z,104.30
2019-02-03T06:11:22.870Z,103.00
2019-02-03T06:12:22.864Z,109.30
2019-02-03T06:13:22.846Z,109.90
2019-02-03T06:14:22.843Z,119.90
2019-02-03T06:15:22.832Z,114.00
2019-02-03T06:16:22.820Z,110.60
2019-02-03T06:17:22.807Z,115.00
2019-02-03T06:18:22.800Z,110.90
2019-02-03T06:19:22.802Z,113.90
2019-02-03T06:20:22.770Z,101.50
2019-02-03T06:21:22.779Z,117.40
2019-02-03T06:22:22.751Z,112.50
2019-02-03T06:23:22.737Z,120.80
2019-02-03T06:24:22.730Z,109.30
2019-02-03T06:25:22.719Z,109.40
2019-02-03T06:26:22.706Z,109.20
2019-02-03T06:27:22.715Z,108.90
2019-02-03T06:28:22.682Z,110.90
2019-02-03T06:29:22.670Z,108.10
2019-02-03T06:30:22.664Z,122.10
2019-02-03T06:31:22.648Z,128.00
2019-02-03T06:32:22.634Z,125.40
2019-02-03T06:33:22.623Z,122.70
2019-02-03T06:34:22.623Z,118.40
2019-02-03T06:35:22.616Z,128.10
2019-02-03T06:36:22.597Z,127.60
2019-02-03T06:37:22.580Z,130.70
2019-02-03T06:38:22.570Z,132.00
2019-02-03T06:39:22.556Z,139.60
2019-02-03T06:40:22.547Z,150.50
2019-02-03T06:41:22.535Z,135.50
2019-02-03T06:42:22.528Z,122.60
2019-02-03T06:43:22.506Z,129.10
2019-02-03T06:44:22.501Z,127.00
2019-02-03T06:45:22.489Z,121.20
2019-02-03T06:46:22.475Z,135.90
2019-02-03T06:47:22.463Z,122.20
2019-02-03T06:48:22.452Z,128.60
2019-02-03T06:49:22.440Z,124.40
2019-02-03T06:50:22.434Z,136.80
2019-02-03T06:51:22.416Z,118.60
2019-02-03T06:52:22.406Z,121.10
2019-02-03T06:53:22.392Z,126.90
2019-02-03T06:54:22.383Z,121.10
2019-02-03T06:55:22.372Z,135.20
2019-02-03T06:56:22.358Z,129.30
2019-02-03T06:57:22.343Z,114.10
2019-02-03T06:58:22.338Z,135.50
2019-02-03T06:59:22.322Z,123.20
2019-02-03T07:00:22.308Z,126.80
2019-02-03T07:01:22.294Z,124.30
2019-02-03T07:02:22.289Z,114.90
2019-02-03T07:03:22.282Z,114.60
2019-02-03T07:04:22.262Z,126.20
2019-02-03T07:05:22.254Z,127.50
2019-02-03T07:06:22.245Z,115.20
2019-02-03T07:07:22.234Z,117.10
2019-02-03T07:08:22.220Z,121.30
2019-02-03T07:09:22.208Z,122.40
2019-02-03T07:10:22.199Z,127.70
2019-02-03T07:11:22.186Z,122.50
2019-02-03T07:12:22.169Z,116.10
2019-02-03T07:13:22.153Z,123.10
2019-02-03T07:14:22.148Z,122.70
2019-02-03T07:15:22.137Z,127.00
2019-02-03T07:16:22.122Z,112.00
2019-02-03T07:17:22.113Z,124.70
2019-02-03T07:18:22.103Z,116.90
2019-02-03T07:19:22.189Z,121.80
2019-02-03T07:20:22.216Z,131.00
2019-02-03T07:21:22.212Z,120.20
2019-02-03T07:22:22.181Z,127.80
2019-02-03T07:23:22.048Z,120.30
2019-02-03T07:24:22.035Z,130.70
2019-02-03T07:25:22.036Z,113.60
2019-02-03T07:26:22.010Z,111.30
2019-02-03T07:27:21.998Z,118.50
2019-02-03T07:28:21.990Z,115.90
2019-02-03T07:29:21.978Z,112.80
2019-02-03T07:30:21.968Z,119.20
2019-02-03T07:31:21.990Z,117.80
2019-02-03T07:32:21.948Z,113.20
2019-02-03T07:33:21.930Z,112.10
2019-02-03T07:34:21.919Z,117.10
2019-02-03T07:35:21.909Z,114.40
2019-02-03T07:36:21.893Z,124.80
2019-02-03T07:37:21.884Z,113.70
2019-02-03T07:38:22.633Z,114.30
2019-02-03T07:39:21.871Z,116.50
2019-02-03T07:40:24.709Z,120.00
2019-02-03T07:41:21.840Z,108.70
2019-02-03T07:42:21.829Z,117.10
2019-02-03T07:43:21.815Z,103.20
2019-02-03T07:44:21.812Z,104.70
2019-02-03T07:45:21.786Z,106.50
2019-02-03T07:46:21.794Z,102.80
2019-02-03T07:47:21.767Z,106.90
2019-02-03T07:48:21.769Z,102.50
2019-02-03T07:49:21.748Z,109.20
2019-02-03T07:50:21.742Z,101.80
2019-02-03T07:51:21.724Z,101.30
2019-02-03T07:52:21.715Z,113.40
2019-02-03T07:53:21.704Z,103.80
2019-02-03T07:54:21.692Z,101.40
2019-02-03T07:55:21.686Z,105.00
2019-02-03T07:56:21.662Z,105.00
2019-02-03T07:57:21.662Z,102.30
2019-02-03T07:58:21.645Z,96.10
2019-02-03T07:59:21.632Z,96.70
2019-02-03T08:00:21.622Z,95.30
2019-02-03T08:01:21.617Z,94.60
2019-02-03T08:02:21.616Z,99.70
2019-02-03T08:03:21.597Z,95.10
2019-02-03T08:04:21.576Z,94.70
2019-02-03T08:05:21.570Z,92.50
2019-02-03T08:06:21.568Z,100.90
2019-02-03T08:07:21.550Z,94.40
2019-02-03T08:08:21.530Z,94.00
2019-02-03T08:09:21.519Z,90.00
2019-02-03T08:10:29.003Z,92.40
2019-02-03T08:11:21.505Z,95.70
2019-02-03T08:12:21.488Z,92.70
2019-02-03T08:13:21.479Z,87.70
2019-02-03T08:14:21.465Z,88.50
2019-02-03T08:15:21.550Z,93.20
2019-02-03T08:16:21.580Z,86.40
2019-02-03T08:17:21.571Z,90.90
2019-02-03T08:18:21.600Z,81.40
2019-02-03T08:19:21.419Z,75.50
2019-02-03T08:20:21.396Z,75.20
2019-02-03T08:21:21.495Z,82.40
2019-02-03T08:22:21.546Z,75.80
2019-02-03T08:23:21.363Z,81.20
2019-02-03T08:24:21.364Z,77.40
2019-02-03T08:25:21.343Z,71.80
2019-02-03T08:26:21.332Z,73.40
2019-02-03T08:27:21.314Z,84.10
2019-02-03T08:28:21.369Z,78.50
2019-02-03T08:29:21.291Z,76.90
2019-02-03T08:30:21.279Z,78.60
2019-02-03T08:31:21.270Z,77.40
2019-02-03T08:32:21.255Z,74.60
2019-02-03T08:33:21.258Z,72.00
2019-02-03T08:34:21.260Z,77.90
2019-02-03T08:35:21.229Z,77.80
2019-02-03T08:36:21.256Z,72.80
2019-02-03T08:37:21.340Z,65.40
2019-02-03T08:38:21.299Z,69.80
2019-02-03T08:39:21.200Z,68.00
2019-02-03T08:40:21.179Z,67.60
2019-02-03T08:41:21.164Z,68.20
2019-02-03T08:42:21.145Z,69.70
2019-02-03T08:43:21.155Z,70.80
2019-02-03T08:44:21.124Z,62.90
2019-02-03T08:45:21.115Z,66.50
2019-02-03T08:46:21.115Z,64.10
2019-02-03T08:47:21.086Z,59.40
2019-02-03T08:48:21.080Z,59.90
2019-02-03T08:49:21.068Z,63.10
2019-02-03T08:50:21.060Z,58.30
2019-02-03T08:51:21.049Z,56.80
2019-02-03T08:52:21.036Z,58.90
2019-02-03T08:53:21.023Z,60.40
2019-02-03T08:54:21.110Z,61.70
2019-02-03T08:55:21.031Z,55.60
2019-02-03T08:56:20.992Z,59.10
2019-02-03T08:57:20.979Z,61.70
2019-02-03T08:58:21.006Z,63.70
2019-02-03T08:59:20.963Z,64.90
2019-02-03T09:00:20.947Z,56.30
2019-02-03T09:01:21.015Z,66.50
2019-02-03T09:02:20.925Z,59.40
2019-02-03T09:03:20.918Z,60.70
2019-02-03T09:04:20.907Z,56.70
2019-02-03T09:05:20.887Z,60.80
2019-02-03T09:06:20.892Z,60.40
2019-02-03T09:07:20.866Z,54.50
2019-02-03T09:08:20.877Z,57.70
2019-02-03T09:09:20.856Z,58.50
2019-02-03T09:10:20.844Z,59.40
2019-02-03T09:11:20.841Z,63.10
2019-02-03T09:12:20.815Z,56.70
2019-02-03T09:13:20.798Z,56.60
2019-02-03T09:14:20.795Z,58.30
2019-02-03T09:15:20.779Z,54.80
2019-02-03T09:16:22.319Z,56.40
2019-02-03T09:17:21.168Z,60.60
2019-02-03T09:18:27.671Z,63.90
2019-02-03T09:19:20.749Z,51.80
2019-02-03T09:20:34.654Z,50.90
2019-02-03T09:21:25.059Z,58.80
2019-02-03T09:22:34.490Z,56.50
2019-02-03T09:23:24.494Z,59.90
2019-02-03T09:24:20.687Z,71.10
2019-02-03T09:25:21.954Z,61.40
2019-02-03T09:26:36.529Z,58.10
2019-02-03T09:27:25.965Z,59.00
2019-02-03T09:28:20.648Z,63.10
2019-02-03T09:29:20.622Z,60.80
2019-02-03T09:30:20.635Z,54.60
2019-02-03T09:31:20.598Z,58.30
2019-02-03T09:32:21.059Z,58.20
2019-02-03T09:33:28.006Z,61.20
2019-02-03T09:34:21.976Z,63.10
2019-02-03T09:35:20.774Z,63.10
2019-02-03T09:36:20.572Z,58.10
2019-02-03T09:37:20.544Z,53.20
2019-02-03T09:38:20.673Z,58.50
2019-02-03T09:39:20.537Z,54.20
2019-02-03T09:40:20.516Z,56.90
2019-02-03T09:41:20.504Z,54.30
2019-02-03T09:42:20.510Z,60.70
2019-02-03T09:43:20.482Z,53.20
2019-02-03T09:44:20.471Z,51.80
2019-02-03T09:45:20.467Z,54.40
2019-02-03T09:46:23.052Z,47.40
2019-02-03T09:47:20.451Z,50.20
2019-02-03T09:48:20.425Z,53.30
2019-02-03T09:49:20.417Z,55.60
2019-02-03T09:50:20.404Z,51.90
2019-02-03T09:51:21.172Z,51.80
2019-02-03T09:52:20.384Z,50.80
2019-02-03T09:53:20.558Z,47.90
2019-02-03T09:54:20.360Z,52.60
2019-02-03T09:55:20.676Z,47.70
2019-02-03T09:56:20.340Z,52.80
2019-02-03T09:57:20.329Z,46.30
2019-02-03T09:58:20.318Z,47.70
2019-02-03T09:59:20.314Z,51.10
2019-02-03T10:00:20.297Z,56.80
2019-02-03T10:01:20.289Z,52.40
2019-02-03T10:02:20.279Z,56.80
2019-02-03T10:03:20.266Z,56.90
2019-02-03T10:04:20.260Z,58.10
2019-02-03T10:05:20.251Z,67.90
2019-02-03T10:06:20.240Z,64.20
2019-02-03T10:07:20.232Z,60.90
2019-02-03T10:08:20.214Z,59.00
2019-02-03T10:09:20.213Z,67.80
2019-02-03T10:10:20.196Z,59.40
2019-02-03T10:11:22.828Z,56.70
2019-02-03T10:12:20.181Z,59.50
2019-02-03T10:13:20.165Z,68.70
2019-02-03T10:14:20.159Z,68.60
2019-02-03T10:15:20.174Z,68.90
2019-02-03T10:16:20.135Z,63.30
2019-02-03T10:17:20.139Z,61.60
2019-02-03T10:18:20.125Z,59.30
2019-02-03T10:19:20.108Z,58.30
2019-02-03T10:20:20.099Z,64.40
2019-02-03T10:21:21.497Z,58.60
2019-02-03T10:22:20.114Z,59.60
2019-02-03T10:23:20.106Z,61.10
2019-02-03T10:24:20.058Z,61.90
2019-02-03T10:25:20.047Z,64.00
2019-02-03T10:26:20.051Z,64.30
2019-02-03T10:27:20.026Z,58.00
2019-02-03T10:28:20.015Z,66.70
2019-02-03T10:29:19.999Z,61.10
2019-02-03T10:30:20.020Z,56.90
2019-02-03T10:31:19.987Z,63.10
2019-02-03T10:32:19.973Z,60.20
2019-02-03T10:33:19.980Z,58.80
2019-02-03T10:34:19.955Z,56.30
2019-02-03T10:35:23.639Z,55.70
2019-02-03T10:36:20.081Z,52.00
2019-02-03T10:37:19.926Z,58.00
2019-02-03T10:38:19.922Z,52.50
2019-02-03T10:39:19.906Z,48.70
2019-02-03T10:40:19.892Z,55.60
2019-02-03T10:41:23.993Z,53.30
2019-02-03T10:42:19.880Z,50.40
2019-02-03T10:43:19.865Z,49.00
2019-02-03T10:44:19.863Z,49.90
2019-02-03T10:45:19.845Z,49.00
2019-02-03T10:46:19.846Z,48.60
2019-02-03T10:47:19.843Z,50.10
2019-02-03T10:48:19.820Z,46.40
2019-02-03T10:49:19.811Z,47.90
2019-02-03T10:50:19.792Z,48.10
2019-02-03T10:51:19.801Z,39.10
2019-02-03T10:52:19.780Z,42.80
2019-02-03T10:53:19.766Z,40.70
2019-02-03T10:54:19.758Z,44.20
2019-02-03T10:55:19.751Z,39.20
2019-02-03T10:56:19.740Z,42.50
2019-02-03T10:57:19.729Z,41.60
2019-02-03T10:58:19.717Z,41.60
2019-02-03T10:59:19.710Z,43.60
2019-02-03T11:00:19.698Z,45.00
2019-02-03T11:01:19.691Z,44.10
2019-02-03T11:02:19.682Z,50.70
2019-02-03T11:03:19.671Z,50.60
2019-02-03T11:04:19.652Z,50.10
2019-02-03T11:05:19.652Z,48.70
2019-02-03T11:06:19.640Z,48.50
2019-02-03T11:07:19.631Z,50.20
2019-02-03T11:08:19.623Z,52.30
2019-02-03T11:09:19.619Z,47.50
2019-02-03T11:10:19.607Z,49.20
2019-02-03T11:11:19.595Z,48.10
2019-02-03T11:12:19.578Z,48.30
2019-02-03T11:13:19.573Z,39.90
2019-02-03T11:14:19.575Z,41.20
2019-02-03T11:15:19.555Z,42.40
2019-02-03T11:16:19.550Z,43.90
2019-02-03T11:17:19.541Z,45.40
2019-02-03T11:18:19.526Z,45.10
2019-02-03T11:19:19.518Z,42.80
2019-02-03T11:20:19.512Z,46.00
2019-02-03T11:21:19.531Z,45.00
2019-02-03T11:22:19.502Z,47.60
2019-02-03T11:23:19.485Z,45.20
2019-02-03T11:24:19.470Z,41.40
2019-02-03T11:25:19.457Z,49.70
2019-02-03T11:26:19.459Z,42.90
2019-02-03T11:27:19.448Z,41.20
2019-02-03T11:28:19.430Z,42.00
2019-02-03T11:29:19.425Z,40.00
2019-02-03T11:30:19.416Z,39.40
2019-02-03T11:31:19.420Z,47.00
2019-02-03T11:32:19.394Z,42.70
2019-02-03T11:33:19.389Z,37.20
2019-02-03T11:34:19.372Z,37.80
2019-02-03T11:35:19.371Z,38.20
2019-02-03T11:36:19.356Z,39.20
2019-02-03T11:37:21.091Z,35.70
2019-02-03T11:38:19.347Z,36.20
2019-02-03T11:39:19.331Z,35.20
2019-02-03T11:40:19.388Z,38.70
2019-02-03T11:41:19.319Z,39.60
2019-02-03T11:42:19.305Z,41.80
2019-02-03T11:43:19.290Z,40.20
2019-02-03T11:44:19.278Z,36.30
2019-02-03T11:45:19.271Z,34.40
2019-02-03T11:46:19.275Z,35.80
2019-02-03T11:47:19.246Z,36.00
2019-02-03T11:48:19.248Z,37.10
2019-02-03T11:49:19.239Z,33.70
2019-02-03T11:50:19.219Z,33.60
2019-02-03T11:51:19.216Z,32.80
2019-02-03T11:52:19.209Z,33.50
2019-02-03T11:53:19.200Z,35.60
2019-02-03T11:54:19.194Z,30.90
2019-02-03T11:55:19.176Z,35.60
2019-02-03T11:56:19.170Z,33.50
2019-02-03T11:57:19.162Z,31.80
2019-02-03T11:58:19.156Z,30.80
2019-02-03T11:59:19.154Z,34.60
2019-02-03T12:00:19.731Z,31.10
2019-02-03T12:01:19.206Z,31.20
2019-02-03T12:02:19.116Z,33.00
2019-02-03T12:03:19.107Z,29.60
2019-02-03T12:04:19.094Z,31.30
2019-02-03T12:05:19.086Z,29.60
2019-02-03T12:06:19.080Z,26.70
2019-02-03T12:07:19.072Z,25.10
2019-02-03T12:08:19.062Z,29.40
2019-02-03T12:09:19.047Z,23.80
2019-02-03T12:10:19.049Z,25.90
2019-02-03T12:11:19.030Z,26.40
2019-02-03T12:12:19.023Z,28.10
2019-02-03T12:13:19.016Z,26.80
2019-02-03T12:14:19.011Z,24.80
2019-02-03T12:15:19.265Z,24.70
2019-02-03T12:16:18.992Z,26.00
2019-02-03T12:17:18.978Z,21.70
2019-02-03T12:18:18.967Z,25.30
2019-02-03T12:19:18.960Z,26.90
2019-02-03T12:20:18.947Z,26.50
2019-02-03T12:21:18.935Z,27.90
2019-02-03T12:22:18.928Z,30.50
2019-02-03T12:23:18.917Z,27.40
2019-02-03T12:24:18.911Z,22.70
2019-02-03T12:25:18.903Z,26.30
2019-02-03T12:26:18.890Z,22.40
2019-02-03T12:27:18.890Z,24.80
2019-02-03T12:28:18.862Z,21.40
2019-02-03T12:29:18.863Z,21.30
2019-02-03T12:30:18.851Z,20.30
2019-02-03T12:31:18.841Z,20.60
2019-02-03T12:32:18.833Z,20.10
2019-02-03T12:33:18.823Z,20.40
2019-02-03T12:34:18.818Z,22.20
2019-02-03T12:35:19.681Z,19.90
2019-02-03T12:36:18.803Z,17.80
2019-02-03T12:37:18.783Z,18.70
2019-02-03T12:38:18.786Z,20.20
2019-02-03T12:39:18.765Z,19.60
2019-02-03T12:40:18.753Z,24.70
2019-02-03T12:41:18.748Z,21.40